Time;durP1;ratioP1;P1;durP2;ratioP2;P2;SDS_P1;SDS_P2;PMS_P1;PMS_P2;Temp;Humidity;BMP_temperature;BMP_pressure;BME280_temperature;BME280_humidity;BME280_pressure;Samples;Min_cycle;Max_cycle;Signal;HPM_P1;HPM_P2
2023/08/23 00:01:37;;;;;;;3.65;2.00;;;25.20;86.00;;;;;;5037771;28;20056;-69
2023/08/23 00:04:03;;;;;;;3.85;2.00;;;25.10;85.90;;;;;;5065484;28;20128;-64
2023/08/23 00:06:28;;;;;;;5.60;2.25;;;25.30;86.10;;;;;;5044257;28;20043;-68
2023/08/23 00:08:54;;;;;;;3.90;1.70;;;25.10;86.00;;;;;;5049155;28;20074;-71
2023/08/23 00:11:20;;;;;;;3.28;1.80;;;25.20;86.10;;;;;;5049960;28;20110;-66
2023/08/23 00:13:46;;;;;;;4.60;2.10;;;25.20;86.10;;;;;;5048036;28;20059;-69
2023/08/23 00:16:12;;;;;;;3.95;1.83;;;25.00;86.00;;;;;;5035882;28;20111;-72
2023/08/23 00:18:37;;;;;;;3.58;2.05;;;25.30;86.30;;;;;;5050712;28;20048;-74
2023/08/23 00:21:03;;;;;;;3.55;1.85;;;25.40;86.20;;;;;;5038932;28;20045;-66
2023/08/23 00:23:29;;;;;;;4.15;2.15;;;24.90;85.90;;;;;;5041998;28;20045;-69
2023/08/23 00:25:55;;;;;;;3.95;2.13;;;25.00;85.90;;;;;;5070142;28;20127;-66
2023/08/23 00:28:20;;;;;;;3.30;1.92;;;25.20;86.20;;;;;;5050303;28;20056;-70
2023/08/23 00:30:52;;;;;;;3.67;1.90;;;25.00;86.00;;;;;;5064994;28;20044;-66
2023/08/23 00:33:18;;;;;;;3.85;1.70;;;25.00;86.40;;;;;;5067013;28;20769;-72
2023/08/23 00:35:44;;;;;;;3.58;1.80;;;25.00;86.00;;;;;;5067422;28;20051;-66
2023/08/23 00:38:10;;;;;;;3.90;2.00;;;25.10;86.00;;;;;;5058384;28;20056;-69
2023/08/23 00:40:36;;;;;;;3.95;2.10;;;25.10;86.00;;;;;;5069207;28;20056;-67
2023/08/23 00:43:02;;;;;;;3.40;1.80;;;25.00;85.80;;;;;;5067960;28;20490;-66
2023/08/23 00:45:28;;;;;;;3.50;1.70;;;24.90;86.10;;;;;;5061100;28;20371;-62
2023/08/23 00:47:54;;;;;;;4.57;1.85;;;25.00;86.00;;;;;;5045197;28;20048;-63
2023/08/23 00:50:20;;;;;;;3.67;1.95;;;25.00;85.80;;;;;;5048080;28;20570;-63
2023/08/23 00:52:46;;;;;;;4.70;1.85;;;25.00;85.90;;;;;;5043499;28;20046;-62
2023/08/23 00:55:12;;;;;;;4.97;2.08;;;25.30;86.20;;;;;;5050908;28;20127;-69
2023/08/23 00:57:37;;;;;;;4.90;2.08;;;25.00;86.00;;;;;;5067399;28;20072;-77
2023/08/23 01:00:04;;;;;;;3.58;2.03;;;24.80;85.90;;;;;;5046738;28;20041;-64
2023/08/23 01:02:30;;;;;;;4.80;2.20;;;25.10;85.80;;;;;;5044790;28;20056;-63
2023/08/23 01:04:56;;;;;;;4.55;2.05;;;24.80;85.90;;;;;;5041103;28;20132;-67
2023/08/23 01:07:34;;;;;;;3.90;1.98;;;24.60;85.80;;;;;;5044048;28;20040;-66
2023/08/23 01:10:23;;;;;;;4.45;2.30;;;25.10;86.60;;;;;;5050584;28;20049;-64
2023/08/23 01:12:55;;;;;;;4.78;2.17;;;24.80;85.10;;;;;;5070296;28;20053;-64
2023/08/23 01:15:21;;;;;;;3.88;1.92;;;24.90;86.30;;;;;;5072239;28;20043;-66
2023/08/23 01:17:47;;;;;;;4.00;2.17;;;25.00;86.20;;;;;;5048340;28;20036;-65
2023/08/23 01:20:13;;;;;;;4.22;2.25;;;25.00;86.10;;;;;;5038589;28;20474;-64
2023/08/23 01:22:43;;;;;;;4.50;2.22;;;24.80;86.20;;;;;;5055413;28;20048;-64
2023/08/23 01:25:09;;;;;;;3.70;1.90;;;24.80;86.30;;;;;;5072720;28;20053;-63
2023/08/23 01:27:34;;;;;;;3.08;2.00;;;24.90;86.20;;;;;;5068271;28;20264;-63
2023/08/23 01:30:00;;;;;;;5.43;1.70;;;24.80;86.40;;;;;;5069307;28;20044;-68
2023/08/23 01:32:36;;;;;;;3.10;1.83;;;24.70;85.90;;;;;;5064079;28;20119;-63
2023/08/23 01:35:07;;;;;;;5.93;2.10;;;25.00;85.60;;;;;;5046814;28;20080;-62
2023/08/23 01:37:35;;;;;;;3.00;1.77;;;25.00;85.90;;;;;;5053771;28;20560;-62
2023/08/23 01:40:01;;;;;;;4.13;2.20;;;25.10;86.40;;;;;;5052168;28;20055;-63
2023/08/23 01:42:27;;;;;;;4.60;2.40;;;24.90;86.30;;;;;;5047462;28;20395;-64
2023/08/23 01:44:52;;;;;;;3.75;1.90;;;24.80;86.00;;;;;;5027998;28;20037;-70
2023/08/23 01:47:18;;;;;;;3.88;1.88;;;24.60;85.90;;;;;;5058542;28;20056;-76
2023/08/23 01:49:44;;;;;;;3.40;1.83;;;25.00;86.10;;;;;;5065456;28;20398;-72
2023/08/23 01:52:10;;;;;;;4.43;2.17;;;24.50;85.90;;;;;;5030381;28;20490;-74
2023/08/23 01:54:36;;;;;;;5.25;2.10;;;24.80;86.10;;;;;;5044884;28;20399;-71
2023/08/23 01:57:01;;;;;;;4.47;2.28;;;24.80;86.00;;;;;;5061877;28;20528;-65
2023/08/23 01:59:27;;;;;;;3.20;1.85;;;24.80;86.00;;;;;;5043411;28;20128;-62
2023/08/23 02:01:53;;;;;;;4.38;2.17;;;25.10;86.20;;;;;;5066519;28;20045;-77
2023/08/23 02:04:19;;;;;;;4.38;2.20;;;24.80;86.20;;;;;;5038432;28;20044;-79
2023/08/23 02:06:45;;;;;;;6.57;2.40;;;24.70;86.10;;;;;;5058721;28;20391;-75
2023/08/23 02:09:11;;;;;;;3.88;1.98;;;24.80;86.10;;;;;;5057042;28;20063;-71
2023/08/23 02:11:37;;;;;;;3.90;2.20;;;25.00;86.20;;;;;;5056247;28;20102;-75
2023/08/23 02:14:03;;;;;;;4.82;2.05;;;24.70;86.10;;;;;;5055272;28;20110;-67
2023/08/23 02:16:29;;;;;;;4.38;2.08;;;24.80;86.10;;;;;;5059898;28;20080;-79
2023/08/23 02:18:55;;;;;;;7.20;2.38;;;24.60;89.40;;;;;;5068992;28;20072;-70
2023/08/23 02:21:21;;;;;;;4.13;2.22;;;24.70;86.10;;;;;;5067407;28;20132;-68
2023/08/23 02:23:46;;;;;;;5.00;2.30;;;24.60;85.90;;;;;;5063100;28;20123;-69
2023/08/23 02:26:13;;;;;;;4.82;2.30;;;24.60;89.20;;;;;;5045991;28;20058;-71
2023/08/23 02:28:38;;;;;;;5.00;2.50;;;24.90;86.10;;;;;;5051927;28;20041;-67
2023/08/23 02:31:04;;;;;;;3.65;1.80;;;24.60;86.00;;;;;;5059504;28;20547;-72
2023/08/23 02:33:30;;;;;;;3.83;2.00;;;24.70;86.00;;;;;;5022869;28;20076;-64
2023/08/23 02:35:56;;;;;;;3.75;1.60;;;24.70;86.00;;;;;;5056925;28;20204;-78
2023/08/23 02:38:21;;;;;;;3.47;1.88;;;24.60;85.90;;;;;;5041465;28;20037;-71
2023/08/23 02:40:47;;;;;;;3.60;1.83;;;24.70;86.00;;;;;;5060960;28;20483;-71
2023/08/23 02:43:13;;;;;;;3.85;1.90;;;24.70;85.70;;;;;;5044848;28;20060;-73
2023/08/23 02:45:42;;;;;;;4.43;2.00;;;24.50;88.60;;;;;;5044707;28;20053;-78
2023/08/23 02:48:11;;;;;;;3.35;1.90;;;24.40;84.50;;;;;;5058664;28;20060;-68
2023/08/23 02:50:37;;;;;;;4.35;2.30;;;24.60;86.20;;;;;;5066955;28;20453;-70
2023/08/23 02:53:03;;;;;;;3.47;1.90;;;24.60;85.80;;;;;;5067889;28;20037;-75
2023/08/23 02:55:29;;;;;;;4.15;2.00;;;24.60;89.40;;;;;;5069359;28;20055;-67
2023/08/23 02:57:55;;;;;;;3.80;2.05;;;24.60;85.90;;;;;;5068900;28;20155;-69
2023/08/23 03:00:20;;;;;;;4.18;2.00;;;24.40;85.70;;;;;;5046466;28;20059;-70
2023/08/23 03:02:46;;;;;;;4.28;2.10;;;24.70;85.90;;;;;;5069921;28;20119;-70
2023/08/23 03:05:12;;;;;;;3.40;2.08;;;24.70;86.00;;;;;;5062697;28;20043;-66
2023/08/23 03:07:37;;;;;;;3.63;2.10;;;24.60;85.90;;;;;;5050733;28;20131;-69
2023/08/23 03:10:03;;;;;;;4.93;1.90;;;24.50;85.80;;;;;;5028253;28;20052;-77
2023/08/23 03:12:29;;;;;;;3.65;2.10;;;24.60;85.70;;;;;;5071344;28;20051;-69
2023/08/23 03:14:55;;;;;;;4.30;2.20;;;24.40;85.90;;;;;;5070438;28;20048;-70
2023/08/23 03:17:21;;;;;;;3.72;2.10;;;24.60;85.70;;;;;;5047161;28;20044;-73
2023/08/23 03:19:47;;;;;;;2.97;1.80;;;24.30;85.70;;;;;;5073781;28;20040;-73
2023/08/23 03:22:12;;;;;;;4.13;2.10;;;24.40;85.60;;;;;;5074543;28;20037;-68
2023/08/23 03:24:38;;;;;;;3.97;2.08;;;24.40;85.70;;;;;;5054871;28;20383;-64
2023/08/23 03:27:04;;;;;;;3.47;2.10;;;24.50;85.80;;;;;;5057432;28;20040;-71
2023/08/23 03:29:30;;;;;;;4.28;2.08;;;24.40;85.70;;;;;;5053538;28;20056;-65
2023/08/23 03:31:55;;;;;;;3.10;2.00;;;24.60;85.70;;;;;;5037059;28;20145;-69
2023/08/23 03:34:21;;;;;;;3.00;1.92;;;24.50;85.70;;;;;;5060702;28;20124;-69
2023/08/23 03:36:48;;;;;;;4.57;2.08;;;24.50;85.70;;;;;;5054906;28;20418;-76
2023/08/23 03:39:14;;;;;;;3.85;2.13;;;24.60;86.00;;;;;;5040330;28;20052;-65
2023/08/23 03:41:39;;;;;;;3.60;2.00;;;24.60;85.60;;;;;;5053579;28;20139;-69
2023/08/23 03:44:05;;;;;;;3.75;2.03;;;24.30;85.30;;;;;;5056273;28;20506;-71
2023/08/23 03:46:31;;;;;;;4.88;2.13;;;24.30;88.80;;;;;;5052648;28;20125;-75
2023/08/23 03:48:57;;;;;;;7.15;2.30;;;24.50;85.80;;;;;;5069848;28;20044;-65
2023/08/23 03:51:22;;;;;;;4.28;2.33;;;24.40;85.80;;;;;;5046975;28;20083;-78
2023/08/23 03:53:48;;;;;;;3.95;1.90;;;24.20;85.50;;;;;;5053952;28;20330;-77
2023/08/23 03:56:14;;;;;;;3.15;1.73;;;24.20;85.70;;;;;;5042962;28;20048;-71
2023/08/23 03:58:40;;;;;;;3.75;2.00;;;24.50;85.80;;;;;;5048294;28;20055;-67
2023/08/23 04:01:05;;;;;;;2.88;1.75;;;24.30;85.70;;;;;;5069661;28;20077;-75
2023/08/23 04:03:31;;;;;;;2.30;1.60;;;24.30;85.70;;;;;;5070606;28;20048;-73
2023/08/23 04:05:57;;;;;;;3.17;1.80;;;24.40;85.80;;;;;;5070613;28;20040;-63
2023/08/23 04:08:23;;;;;;;2.38;1.63;;;24.40;85.70;;;;;;5069212;28;20064;-66
2023/08/23 04:10:49;;;;;;;3.53;1.88;;;24.40;85.70;;;;;;5073364;28;20557;-78
2023/08/23 04:13:15;;;;;;;3.35;1.92;;;24.40;85.70;;;;;;5068476;28;20050;-71
2023/08/23 04:15:42;;;;;;;2.92;1.88;;;24.30;85.60;;;;;;5071773;28;20098;-64
2023/08/23 04:18:07;;;;;;;3.42;1.80;;;24.30;86.10;;;;;;5071817;28;20495;-74
2023/08/23 04:20:33;;;;;;;3.58;2.15;;;24.40;85.70;;;;;;5073113;28;20041;-72
2023/08/23 04:22:59;;;;;;;3.33;2.10;;;24.20;85.60;;;;;;5049860;28;20134;-69
2023/08/23 04:25:25;;;;;;;4.43;2.08;;;24.50;85.70;;;;;;5068728;28;20039;-74
2023/08/23 04:27:51;;;;;;;3.95;2.13;;;24.10;85.60;;;;;;5054603;28;20036;-62
2023/08/23 04:30:17;;;;;;;4.25;2.20;;;24.10;85.40;;;;;;5072840;28;20105;-67
2023/08/23 04:32:43;;;;;;;3.92;2.10;;;24.20;85.40;;;;;;5068966;28;20513;-68
2023/08/23 04:35:09;;;;;;;4.10;2.00;;;24.20;85.70;;;;;;5069456;28;20052;-67
2023/08/23 04:37:35;;;;;;;5.13;2.58;;;24.50;85.70;;;;;;5054544;28;20064;-63
2023/08/23 04:40:00;;;;;;;4.82;2.40;;;24.20;85.50;;;;;;5071192;28;20406;-62
2023/08/23 04:42:30;;;;;;;5.07;2.20;;;24.60;85.60;;;;;;5068348;28;20044;-62
2023/08/23 04:44:56;;;;;;;6.03;2.55;;;24.40;85.90;;;;;;5053084;28;20393;-63
2023/08/23 04:47:22;;;;;;;4.93;2.40;;;24.50;85.70;;;;;;5072494;28;20142;-62
2023/08/23 04:49:47;;;;;;;4.00;2.35;;;24.30;85.50;;;;;;5053177;28;20525;-62
2023/08/23 04:52:13;;;;;;;4.25;2.15;;;24.50;88.60;;;;;;5055468;28;20144;-67
2023/08/23 04:54:39;;;;;;;4.30;2.60;;;24.20;85.50;;;;;;5069487;28;20097;-76
2023/08/23 04:57:05;;;;;;;4.13;2.10;;;24.30;85.70;;;;;;5059695;28;20049;-63
2023/08/23 04:59:31;;;;;;;5.07;2.70;;;24.20;88.70;;;;;;5043416;28;20053;-63
2023/08/23 05:01:57;;;;;;;4.07;2.50;;;24.30;88.50;;;;;;5059742;28;20285;-65
2023/08/23 05:04:23;;;;;;;4.93;2.60;;;24.40;89.40;;;;;;5058042;28;20550;-64
2023/08/23 05:06:49;;;;;;;4.32;2.30;;;24.40;85.70;;;;;;5060419;28;20044;-62
2023/08/23 05:09:14;;;;;;;5.20;2.60;;;24.30;85.50;;;;;;5071512;28;20043;-67
2023/08/23 05:11:40;;;;;;;4.35;2.60;;;24.30;85.40;;;;;;5067387;28;20501;-66
2023/08/23 05:14:06;;;;;;;5.15;2.72;;;24.40;85.70;;;;;;5040526;28;20047;-62
2023/08/23 05:16:32;;;;;;;4.03;2.20;;;24.30;85.40;;;;;;5068652;28;20119;-62
2023/08/23 05:18:58;;;;;;;4.97;2.10;;;24.40;85.50;;;;;;5049644;28;20483;-72
2023/08/23 05:21:24;;;;;;;5.00;2.30;;;24.40;85.60;;;;;;5070420;28;20048;-61
2023/08/23 05:23:50;;;;;;;4.38;2.30;;;24.40;85.40;;;;;;5060854;28;20045;-63
2023/08/23 05:26:17;;;;;;;3.78;2.40;;;24.50;89.00;;;;;;5071443;28;20131;-79
2023/08/23 05:28:43;;;;;;;3.85;2.22;;;24.40;85.70;;;;;;5067635;28;20044;-80
2023/08/23 05:31:10;;;;;;;4.65;2.45;;;24.40;86.10;;;;;;5072001;28;20060;-76
2023/08/23 05:33:35;;;;;;;3.88;2.15;;;24.40;85.40;;;;;;5070141;28;20250;-73
2023/08/23 05:36:01;;;;;;;4.38;2.38;;;24.50;85.30;;;;;;5067879;28;20549;-65
2023/08/23 05:38:28;;;;;;;6.28;2.85;;;24.50;85.40;;;;;;5069616;28;20128;-68
2023/08/23 05:40:54;;;;;;;4.90;3.05;;;24.60;85.40;;;;;;5071363;28;20081;-67
2023/08/23 05:43:21;;;;;;;5.35;3.00;;;25.00;85.30;;;;;;5071034;28;20398;-61
2023/08/23 05:45:47;;;;;;;6.38;3.28;;;24.60;85.60;;;;;;5070973;28;20036;-63
2023/08/23 05:48:13;;;;;;;5.95;3.20;;;24.70;85.20;;;;;;5070114;28;20047;-63
2023/08/23 05:50:39;;;;;;;7.13;4.18;;;24.60;85.40;;;;;;5066472;28;21899;-61
2023/08/23 05:53:10;;;;;;;6.40;4.18;;;24.60;85.10;;;;;;5068350;28;20064;-61
2023/08/23 05:55:36;;;;;;;7.65;3.58;;;24.80;85.40;;;;;;5070300;28;20040;-63
2023/08/23 05:58:02;;;;;;;6.60;3.45;;;24.60;85.30;;;;;;5068669;28;20123;-63
2023/08/23 06:00:28;;;;;;;6.22;3.42;;;24.70;85.20;;;;;;5057995;28;20447;-62
2023/08/23 06:02:54;;;;;;;6.05;3.20;;;24.80;85.20;;;;;;5067045;28;20048;-62
2023/08/23 06:05:20;;;;;;;7.32;3.33;;;24.70;85.10;;;;;;5070328;28;20105;-61
2023/08/23 06:07:46;;;;;;;5.95;3.20;;;24.60;84.90;;;;;;5068476;28;20147;-62
2023/08/23 06:10:11;;;;;;;7.10;3.80;;;25.00;85.10;;;;;;5066402;28;20051;-62
2023/08/23 06:12:37;;;;;;;7.28;3.78;;;25.00;85.20;;;;;;5067820;28;20045;-65
2023/08/23 06:15:04;;;;;;;5.93;3.53;;;24.90;85.10;;;;;;5068950;28;20032;-70
2023/08/23 06:17:30;;;;;;;12.07;7.22;;;25.00;84.90;;;;;;5069897;28;20048;-65
2023/08/23 06:19:56;;;;;;;12.13;8.80;;;25.20;85.30;;;;;;5062136;28;20117;-72
2023/08/23 06:22:22;;;;;;;11.52;9.20;;;25.10;85.40;;;;;;5067473;28;20048;-64
2023/08/23 06:24:48;;;;;;;12.43;9.43;;;22.90;84.60;;;;;;5068928;28;20082;-64
2023/08/23 06:27:14;;;;;;;11.98;9.50;;;25.00;86.20;;;;;;5067936;28;20052;-66
2023/08/23 06:29:40;;;;;;;14.77;9.85;;;24.90;86.60;;;;;;5065122;28;20071;-70
2023/08/23 06:32:09;;;;;;;13.55;9.68;;;25.20;87.10;;;;;;5055596;28;20048;-64
2023/08/23 06:34:35;;;;;;;13.55;10.77;;;24.80;90.30;;;;;;5064341;28;20410;-69
2023/08/23 06:37:01;;;;;;;15.50;9.02;;;24.90;87.50;;;;;;5070030;28;20041;-67
2023/08/23 06:39:27;;;;;;;12.68;9.45;;;24.70;90.50;;;;;;5068750;28;20493;-62
2023/08/23 06:41:52;;;;;;;13.65;9.77;;;24.70;88.30;;;;;;5051256;28;20179;-67
2023/08/23 06:44:18;;;;;;;11.35;9.20;;;24.50;87.90;;;;;;5046764;28;20559;-63
2023/08/23 06:46:44;;;;;;;13.02;9.55;;;24.80;88.20;;;;;;5052540;28;20478;-64
2023/08/23 06:49:11;;;;;;;14.13;9.57;;;25.00;88.40;;;;;;5051175;28;20056;-63
2023/08/23 06:51:38;;;;;;;12.55;9.65;;;24.80;88.50;;;;;;5051063;28;20057;-63
2023/08/23 06:54:04;;;;;;;12.85;10.00;;;24.70;88.40;;;;;;5046719;28;20502;-64
2023/08/23 06:56:30;;;;;;;11.88;9.68;;;24.60;88.20;;;;;;5048349;28;20044;-64
2023/08/23 06:58:56;;;;;;;14.20;10.77;;;24.70;88.40;;;;;;5068173;28;20045;-72
2023/08/23 07:01:22;;;;;;;14.70;10.48;;;25.00;88.70;;;;;;5052106;28;20175;-67
2023/08/23 07:03:48;;;;;;;14.00;11.52;;;24.60;88.30;;;;;;5048642;28;20063;-63
2023/08/23 07:06:14;;;;;;;16.08;13.00;;;24.80;88.50;;;;;;5065441;28;20071;-66
2023/08/23 07:08:41;;;;;;;15.32;12.50;;;24.90;88.90;;;;;;5034501;28;20056;-74
2023/08/23 07:11:07;;;;;;;15.38;11.48;;;24.90;89.20;;;;;;5051532;28;20048;-69
2023/08/23 07:13:34;;;;;;;16.67;11.73;;;24.80;89.10;;;;;;5027210;28;20040;-62
2023/08/23 07:16:00;;;;;;;15.50;12.15;;;24.90;89.00;;;;;;5038711;28;20045;-67
2023/08/23 07:18:26;;;;;;;16.13;12.75;;;25.00;89.00;;;;;;5062420;28;20141;-71
2023/08/23 07:20:51;;;;;;;14.93;13.07;;;24.90;88.80;;;;;;5057822;28;20505;-67
2023/08/23 07:23:17;;;;;;;15.82;13.70;;;24.80;88.70;;;;;;5066089;28;20041;-67
2023/08/23 07:25:44;;;;;;;15.63;13.85;;;25.00;88.80;;;;;;5066477;28;21399;-70
2023/08/23 07:28:11;;;;;;;17.40;14.38;;;24.70;91.00;;;;;;5064113;28;20048;-67
2023/08/23 07:30:38;;;;;;;16.23;14.52;;;24.70;89.00;;;;;;5069044;28;20040;-72
2023/08/23 07:33:04;;;;;;;16.25;14.25;;;24.90;89.40;;;;;;5071095;28;20066;-71
2023/08/23 07:35:30;;;;;;;16.08;14.30;;;24.30;91.10;;;;;;5064726;28;20047;-63
2023/08/23 07:37:56;;;;;;;16.38;13.82;;;24.60;89.50;;;;;;5067056;28;20041;-65
2023/08/23 07:40:22;;;;;;;15.48;13.77;;;24.60;89.30;;;;;;5070021;28;21347;-66
2023/08/23 07:42:48;;;;;;;16.92;14.40;;;24.90;89.50;;;;;;5069512;28;20040;-63
2023/08/23 07:45:13;;;;;;;17.25;15.32;;;24.80;89.20;;;;;;5052751;28;20051;-66
2023/08/23 07:47:39;;;;;;;17.02;15.23;;;24.60;89.50;;;;;;5069468;28;20506;-65
2023/08/23 07:50:06;;;;;;;18.45;14.45;;;24.60;89.30;;;;;;5072890;28;20036;-65
2023/08/23 07:52:32;;;;;;;16.90;14.07;;;24.90;89.20;;;;;;5067358;28;20052;-68
2023/08/23 07:54:58;;;;;;;15.85;14.15;;;25.00;89.30;;;;;;5051941;28;20113;-62
2023/08/23 07:57:24;;;;;;;15.43;13.75;;;25.10;89.40;;;;;;5049597;28;20049;-64
2023/08/23 07:59:49;;;;;;;14.65;13.05;;;24.90;89.20;;;;;;5048942;28;20575;-64
2023/08/23 08:02:15;;;;;;;13.90;12.48;;;25.00;88.90;;;;;;5069568;28;20063;-62
2023/08/23 08:04:43;;;;;;;15.90;13.43;;;25.20;89.00;;;;;;5055194;28;20041;-66
2023/08/23 08:07:08;;;;;;;15.82;12.75;;;25.20;88.90;;;;;;5036690;28;20057;-64
2023/08/23 08:09:34;;;;;;;13.32;11.93;;;25.30;88.50;;;;;;5037525;28;20489;-69
2023/08/23 08:12:00;;;;;;;12.73;11.23;;;25.30;88.80;;;;;;5050021;28;20040;-63
2023/08/23 08:14:26;;;;;;;14.45;9.65;;;25.40;88.70;;;;;;5069745;28;20040;-62
2023/08/23 08:16:52;;;;;;;11.18;9.85;;;25.50;88.60;;;;;;5053544;28;20032;-67
2023/08/23 08:19:18;;;;;;;11.95;9.20;;;25.70;88.60;;;;;;5071982;28;20111;-64
2023/08/23 08:21:44;;;;;;;12.75;9.10;;;25.50;87.70;;;;;;5066426;28;20127;-63
2023/08/23 08:24:10;;;;;;;14.52;9.55;;;25.60;87.10;;;;;;5057620;28;20036;-75
2023/08/23 08:26:36;;;;;;;11.80;8.85;;;25.90;87.40;;;;;;5042981;28;20399;-75
2023/08/23 08:29:02;;;;;;;13.52;8.20;;;25.70;87.20;;;;;;5065201;28;20045;-64
2023/08/23 08:31:28;;;;;;;13.52;8.75;;;25.60;86.60;;;;;;5058873;28;20044;-69
2023/08/23 08:33:53;;;;;;;10.98;8.02;;;25.70;87.00;;;;;;5043325;28;20040;-65
2023/08/23 08:36:19;;;;;;;11.52;8.13;;;25.80;87.00;;;;;;5063370;28;20460;-61
2023/08/23 08:38:45;;;;;;;12.43;8.55;;;25.80;86.80;;;;;;5060205;28;20048;-76
2023/08/23 08:41:12;;;;;;;11.20;9.25;;;25.70;86.80;;;;;;5060757;28;20403;-74
2023/08/23 08:43:38;;;;;;;12.23;8.00;;;25.40;86.50;;;;;;5059675;28;20057;-69
2023/08/23 08:46:07;;;;;;;11.52;7.97;;;25.50;86.50;;;;;;5034084;28;20098;-76
2023/08/23 08:48:33;;;;;;;11.98;7.60;;;25.80;86.70;;;;;;5030132;28;20048;-69
2023/08/23 08:51:02;;;;;;;10.25;7.22;;;25.70;86.90;;;;;;5041907;28;20055;-62
2023/08/23 08:53:28;;;;;;;10.02;6.55;;;25.50;86.20;;;;;;5026941;28;20059;-65
2023/08/23 08:55:54;;;;;;;9.70;5.22;;;25.70;86.40;;;;;;5028775;28;20049;-66
2023/08/23 08:58:20;;;;;;;7.35;5.43;;;25.90;85.80;;;;;;5053338;28;20048;-68
2023/08/23 09:00:48;;;;;;;8.82;5.57;;;26.20;85.60;;;;;;5047756;28;20040;-70
2023/08/23 09:03:14;;;;;;;8.52;6.38;;;26.40;85.70;;;;;;5046056;28;20048;-68
2023/08/23 09:05:40;;;;;;;7.65;5.40;;;26.40;85.20;;;;;;5045859;28;20048;-66
2023/08/23 09:08:06;;;;;;;9.27;5.93;;;26.30;84.40;;;;;;5039480;28;20037;-65
2023/08/23 09:10:32;;;;;;;8.85;5.10;;;26.40;84.30;;;;;;5064009;28;20407;-68
2023/08/23 09:12:57;;;;;;;6.75;4.47;;;26.30;84.20;;;;;;5051133;28;20109;-66
2023/08/23 09:15:23;;;;;;;8.05;4.00;;;26.00;83.90;;;;;;5064016;28;20701;-64
2023/08/23 09:17:51;;;;;;;6.55;3.58;;;26.60;84.20;;;;;;5033567;28;20052;-66
2023/08/23 09:20:18;;;;;;;5.78;4.00;;;26.30;83.80;;;;;;5027790;28;20048;-65
2023/08/23 09:22:44;;;;;;;6.10;3.10;;;26.40;83.30;;;;;;5027079;28;20084;-66
2023/08/23 09:25:09;;;;;;;9.63;3.58;;;26.40;82.90;;;;;;5044184;28;20142;-72
2023/08/23 09:27:36;;;;;;;6.82;3.30;;;26.70;82.60;;;;;;5029227;28;20067;-62
2023/08/23 09:30:04;;;;;;;8.20;3.65;;;26.50;82.10;;;;;;5043135;28;20064;-70
2023/08/23 09:32:30;;;;;;;7.43;3.70;;;26.70;82.00;;;;;;5055022;28;20053;-75
2023/08/23 09:34:57;;;;;;;5.90;3.67;;;26.80;82.10;;;;;;5065849;28;20051;-74
2023/08/23 09:37:23;;;;;;;5.78;3.15;;;26.80;82.00;;;;;;5043413;28;20048;-75
2023/08/23 09:39:49;;;;;;;7.25;3.30;;;26.50;81.50;;;;;;5082954;28;20068;-63
2023/08/23 09:42:15;;;;;;;5.38;2.80;;;26.70;81.40;;;;;;5051440;28;20056;-75
2023/08/23 09:44:43;;;;;;;5.50;2.70;;;26.80;81.40;;;;;;5046202;28;20045;-75
2023/08/23 09:47:13;;;;;;;6.40;2.75;;;26.90;81.70;;;;;;5044714;28;20506;-62
2023/08/23 09:49:39;;;;;;;4.45;2.00;;;26.60;81.10;;;;;;5036375;28;20079;-74
2023/08/23 09:52:05;;;;;;;5.25;2.42;;;26.80;80.70;;;;;;5035776;28;20041;-75
2023/08/23 09:54:54;;;;;;;5.93;3.00;;;27.00;80.70;;;;;;5053920;28;20084;-64
2023/08/23 09:57:20;;;;;;;5.03;2.45;;;27.10;80.90;;;;;;5054585;28;20368;-62
2023/08/23 09:59:46;;;;;;;6.47;2.60;;;26.80;80.30;;;;;;5057937;28;20056;-74
2023/08/23 10:02:12;;;;;;;4.50;2.53;;;26.90;80.00;;;;;;5056034;28;20364;-75
2023/08/23 10:04:41;;;;;;;4.47;2.15;;;26.80;79.80;;;;;;5035806;28;20044;-74
2023/08/23 10:07:08;;;;;;;4.68;2.10;;;27.00;79.60;;;;;;5034613;28;20041;-73
2023/08/23 10:09:34;;;;;;;6.50;2.25;;;27.00;79.70;;;;;;5037490;28;20055;-61
2023/08/23 10:12:01;;;;;;;6.35;2.15;;;26.90;79.40;;;;;;5043981;28;20045;-61
2023/08/23 10:14:27;;;;;;;4.70;2.05;;;26.90;79.30;;;;;;5019859;28;20063;-72
2023/08/23 10:16:53;;;;;;;6.15;1.77;;;27.20;79.00;;;;;;5056686;28;20044;-72
2023/08/23 10:19:20;;;;;;;6.18;2.10;;;27.10;78.70;;;;;;5034916;28;20040;-63
2023/08/23 10:21:45;;;;;;;5.63;2.30;;;27.10;78.40;;;;;;5048468;28;20051;-65
2023/08/23 10:24:12;;;;;;;5.00;2.50;;;27.30;78.70;;;;;;5052637;28;20049;-70
2023/08/23 10:26:46;;;;;;;5.85;2.35;;;27.40;78.60;;;;;;5039778;28;20884;-66
2023/08/23 10:29:12;;;;;;;4.38;2.53;;;27.00;78.50;;;;;;5034488;28;20120;-70
2023/08/23 10:31:50;;;;;;;6.03;2.70;;;26.90;77.60;;;;;;5033537;28;20057;-63
2023/08/23 10:34:28;;;;;;;4.93;2.38;;;27.00;78.50;;;;;;5033306;28;20083;-64
2023/08/23 10:36:55;;;;;;;5.72;2.53;;;26.90;77.10;;;;;;5036914;28;20056;-69
2023/08/23 10:39:24;;;;;;;6.03;2.58;;;27.00;77.60;;;;;;5035430;28;20112;-66
2023/08/23 10:42:02;;;;;;;6.25;2.78;;;27.00;78.20;;;;;;5030818;28;20136;-71
2023/08/23 10:44:28;;;;;;;6.00;2.80;;;27.20;78.80;;;;;;5032643;28;20460;-61
2023/08/23 10:46:55;;;;;;;7.63;2.70;;;27.10;78.60;;;;;;5050593;28;20037;-67
2023/08/23 10:49:21;;;;;;;6.70;2.92;;;27.00;77.90;;;;;;5052609;28;20094;-66
2023/08/23 10:51:47;;;;;;;7.78;5.05;;;27.10;78.70;;;;;;5036634;28;20449;-66
2023/08/23 10:54:14;;;;;;;7.43;3.80;;;27.10;78.80;;;;;;5037548;28;20534;-62
2023/08/23 10:56:40;;;;;;;8.52;3.45;;;27.20;78.80;;;;;;5040112;28;20045;-72
2023/08/23 10:59:07;;;;;;;7.95;3.95;;;27.10;79.20;;;;;;5033513;28;20052;-65
2023/08/23 11:01:38;;;;;;;7.85;3.42;;;27.20;79.30;;;;;;5042144;28;20533;-62
2023/08/23 11:04:07;;;;;;;9.73;3.10;;;27.10;78.40;;;;;;5038974;28;20799;-62
2023/08/23 11:06:33;;;;;;;7.57;3.05;;;27.20;79.00;;;;;;5026268;28;20048;-71
2023/08/23 11:09:00;;;;;;;5.30;2.60;;;27.20;78.80;;;;;;5040301;28;20036;-64
2023/08/23 11:11:29;;;;;;;7.50;2.78;;;27.20;79.00;;;;;;5053306;28;20132;-67
2023/08/23 11:13:55;;;;;;;6.35;2.78;;;27.40;79.10;;;;;;5059870;28;20115;-68
2023/08/23 11:16:21;;;;;;;8.18;2.92;;;27.20;78.50;;;;;;5058094;28;20143;-66
2023/08/23 11:18:47;;;;;;;7.88;3.17;;;27.30;78.70;;;;;;5048842;28;20040;-61
2023/08/23 11:21:13;;;;;;;6.75;2.80;;;27.40;78.40;;;;;;5056538;28;20398;-66
2023/08/23 11:23:39;;;;;;;7.40;3.28;;;27.40;78.40;;;;;;5047882;28;20066;-66
2023/08/23 11:26:05;;;;;;;7.38;3.08;;;27.30;78.30;;;;;;5060923;28;20045;-70
2023/08/23 11:28:31;;;;;;;6.50;2.92;;;27.60;78.20;;;;;;5058678;28;20427;-78
2023/08/23 11:31:06;;;;;;;8.40;2.63;;;27.30;77.70;;;;;;5058999;28;20044;-66
2023/08/23 11:33:33;;;;;;;7.05;2.78;;;27.50;78.20;;;;;;5052733;28;20048;-66
2023/08/23 11:36:00;;;;;;;7.53;3.05;;;27.70;78.00;;;;;;5067584;28;20057;-68
2023/08/23 11:38:29;;;;;;;6.82;3.00;;;27.60;77.70;;;;;;5066419;28;20105;-69
2023/08/23 11:40:56;;;;;;;6.30;3.00;;;27.90;77.90;;;;;;5046772;28;20056;-68
2023/08/23 11:43:25;;;;;;;7.60;3.38;;;27.60;77.80;;;;;;5047202;28;20495;-70
2023/08/23 11:45:52;;;;;;;8.50;2.97;;;27.80;78.40;;;;;;5048902;28;20097;-68
2023/08/23 11:48:18;;;;;;;6.93;3.25;;;27.70;77.50;;;;;;5044917;28;20045;-62
2023/08/23 11:50:46;;;;;;;8.55;3.17;;;27.60;77.30;;;;;;5036739;28;20111;-67
2023/08/23 11:53:12;;;;;;;6.72;3.38;;;27.70;77.50;;;;;;5034491;28;20037;-63
2023/08/23 11:55:40;;;;;;;6.10;3.00;;;27.70;77.30;;;;;;5038208;28;20526;-70
2023/08/23 11:58:06;;;;;;;6.85;2.55;;;27.60;77.50;;;;;;5017270;28;20778;-66
2023/08/23 12:00:33;;;;;;;6.82;2.83;;;27.70;77.20;;;;;;5037160;28;20124;-74
2023/08/23 12:02:59;;;;;;;7.40;2.80;;;27.80;77.50;;;;;;5047847;28;20061;-62
2023/08/23 12:05:26;;;;;;;5.18;2.95;;;27.80;77.40;;;;;;5044652;28;20391;-65
2023/08/23 12:07:52;;;;;;;8.40;2.80;;;27.80;77.30;;;;;;5045780;28;20063;-75
2023/08/23 12:10:19;;;;;;;5.40;2.65;;;27.80;77.30;;;;;;5047586;28;20048;-74
2023/08/23 12:12:44;;;;;;;5.93;3.08;;;28.20;77.20;;;;;;5045510;28;20092;-74
2023/08/23 12:15:10;;;;;;;7.88;2.78;;;27.90;76.80;;;;;;5041023;28;20065;-76
2023/08/23 12:17:36;;;;;;;6.93;3.45;;;28.10;76.90;;;;;;5045310;28;20480;-70
2023/08/23 12:20:04;;;;;;;5.57;3.10;;;28.10;76.60;;;;;;5038500;28;20495;-72
2023/08/23 12:22:30;;;;;;;5.28;3.25;;;28.00;76.60;;;;;;5032402;28;20087;-65
2023/08/23 12:24:56;;;;;;;9.32;3.50;;;28.00;76.40;;;;;;5048987;28;20410;-74
2023/08/23 12:27:21;;;;;;;8.20;3.28;;;28.00;76.40;;;;;;5051645;28;20056;-72
2023/08/23 12:29:47;;;;;;;5.95;3.22;;;28.20;76.60;;;;;;5049627;28;20048;-72
2023/08/23 12:32:13;;;;;;;6.65;3.70;;;27.90;76.30;;;;;;5052544;28;20072;-63
2023/08/23 12:34:39;;;;;;;7.18;3.30;;;28.00;76.00;;;;;;5051380;28;20051;-65
2023/08/23 12:37:05;;;;;;;8.35;3.60;;;28.10;76.10;;;;;;5028857;28;20414;-65
2023/08/23 12:39:30;;;;;;;7.85;3.30;;;27.90;75.80;;;;;;5046605;28;20045;-64